createdAt,value
2023-05-18T00:02:21.663Z,94644.50
2023-05-18T00:04:48.670Z,94638.13
2023-05-18T00:07:15.699Z,94648.63
2023-05-18T00:09:42.592Z,94640.06
2023-05-18T00:12:10.177Z,94639.50
2023-05-18T00:14:37.042Z,94630.22
2023-05-18T00:17:03.923Z,94634.97
2023-05-18T00:19:31.552Z,94629.78
2023-05-18T00:21:58.393Z,94634.13
2023-05-18T00:24:25.195Z,94631.63
2023-05-18T00:26:52.034Z,94629.41
2023-05-18T00:29:18.835Z,94626.47
2023-05-18T00:31:46.065Z,94617.38
2023-05-18T00:34:14.128Z,94631.53
2023-05-18T00:36:41.388Z,94630.38
2023-05-18T00:39:09.284Z,94631.56
2023-05-18T00:41:36.121Z,94630.22
2023-05-18T00:44:04.747Z,94627.47
2023-05-18T00:46:31.915Z,94627.09
2023-05-18T00:48:59.244Z,94622.66
2023-05-18T00:51:26.389Z,94618.84
2023-05-18T00:53:54.310Z,94620.69
2023-05-18T00:56:23.766Z,94624.88
2023-05-18T00:58:52.677Z,94623.47
2023-05-18T01:01:19.538Z,94610.28
2023-05-18T01:03:46.987Z,94619.59
2023-05-18T01:06:14.959Z,94616.66
2023-05-18T01:08:43.048Z,94616.69
2023-05-18T01:11:16.952Z,94615.72
2023-05-18T01:13:49.819Z,94618.66
2023-05-18T01:16:24.295Z,94617.03
2023-05-18T01:18:59.111Z,94620.75
2023-05-18T01:22:04.334Z,94620.59
2023-05-18T01:24:37.450Z,94618.63
2023-05-18T01:27:07.157Z,94614.44
2023-05-18T01:29:34.455Z,94621.44
2023-05-18T01:32:01.295Z,94616.69
2023-05-18T01:34:28.165Z,94608.16
2023-05-18T01:36:54.926Z,94608.69
2023-05-18T01:39:21.775Z,94601.00
2023-05-18T01:41:59.134Z,94618.19
2023-05-18T01:44:39.006Z,94616.59
2023-05-18T01:47:13.191Z,94615.78
2023-05-18T01:49:57.196Z,94614.25
2023-05-18T01:52:36.845Z,94609.88
2023-05-18T01:55:05.178Z,94607.31
2023-05-18T01:57:33.833Z,94599.56
2023-05-18T02:00:01.171Z,94603.75
2023-05-18T02:02:28.909Z,94595.19
2023-05-18T02:04:56.370Z,94591.00
2023-05-18T02:07:23.309Z,94590.84
2023-05-18T02:09:50.088Z,94595.59
2023-05-18T02:12:16.907Z,94587.84
2023-05-18T02:14:43.703Z,94586.84
2023-05-18T02:17:11.724Z,94587.44
2023-05-18T02:19:38.880Z,94589.41
2023-05-18T02:22:09.414Z,94588.03
2023-05-18T02:24:36.323Z,94577.66
2023-05-18T02:27:03.208Z,94592.63
2023-05-18T02:29:30.003Z,94581.09
2023-05-18T02:31:56.753Z,94588.78
2023-05-18T02:34:24.929Z,94592.53
2023-05-18T02:36:51.725Z,94584.44
2023-05-18T02:39:18.592Z,94585.16
2023-05-18T02:41:45.451Z,94586.75
2023-05-18T02:44:13.179Z,94591.00
2023-05-18T02:46:39.951Z,94586.41
2023-05-18T02:49:06.892Z,94594.41
2023-05-18T02:51:33.696Z,94586.03
2023-05-18T02:54:00.697Z,94588.00
2023-05-18T02:56:28.785Z,94567.81
2023-05-18T02:58:58.789Z,94581.59
2023-05-18T03:01:27.249Z,94586.66
2023-05-18T03:03:54.874Z,94585.66
2023-05-18T03:06:26.828Z,94587.44
2023-05-18T03:08:54.664Z,94579.31
2023-05-18T03:11:22.743Z,94584.28
2023-05-18T03:13:49.879Z,94581.88
2023-05-18T03:16:16.741Z,94587.28
2023-05-18T03:18:43.625Z,94579.94
2023-05-18T03:21:13.716Z,94580.28
2023-05-18T03:23:40.974Z,94588.00
2023-05-18T03:26:11.791Z,94586.13
2023-05-18T03:28:39.412Z,94590.75
2023-05-18T03:31:06.702Z,94583.75
2023-05-18T03:33:33.805Z,94586.41
2023-05-18T03:36:04.027Z,94584.44
2023-05-18T03:38:30.847Z,94582.22
2023-05-18T03:40:57.662Z,94589.59
2023-05-18T03:43:26.057Z,94598.38
2023-05-18T03:45:53.747Z,94589.22
2023-05-18T03:48:21.792Z,94596.00
2023-05-18T03:50:48.959Z,94584.97
2023-05-18T03:53:19.381Z,94581.16
2023-05-18T03:55:46.660Z,94591.56
2023-05-18T03:58:13.488Z,94591.19
2023-05-18T04:00:40.699Z,94591.00
2023-05-18T04:03:07.590Z,94593.63
2023-05-18T04:05:34.550Z,94593.88
2023-05-18T04:08:01.398Z,94594.50
2023-05-18T04:10:28.171Z,94594.16
2023-05-18T04:12:54.900Z,94589.34
2023-05-18T04:15:21.839Z,94585.41
2023-05-18T04:17:51.414Z,94588.63
2023-05-18T04:20:18.882Z,94601.13
2023-05-18T04:22:48.645Z,94597.81
2023-05-18T04:25:16.141Z,94594.44
2023-05-18T04:27:43.857Z,94602.78
2023-05-18T04:30:11.704Z,94603.41
2023-05-18T04:32:39.290Z,94609.38
2023-05-18T04:35:07.282Z,94602.25
2023-05-18T04:37:34.519Z,94601.88
2023-05-18T04:40:02.296Z,94587.13
2023-05-18T04:42:29.269Z,94598.09
2023-05-18T04:44:56.028Z,94597.50
2023-05-18T04:47:23.996Z,94600.28
2023-05-18T04:49:52.668Z,94599.88
2023-05-18T04:52:22.134Z,94603.47
2023-05-18T04:54:48.786Z,94602.69
2023-05-18T04:57:15.530Z,94601.88
2023-05-18T04:59:42.684Z,94603.66
2023-05-18T05:02:09.544Z,94609.44
2023-05-18T05:04:36.475Z,94604.66
2023-05-18T05:07:03.394Z,94606.63
2023-05-18T05:09:30.692Z,94605.84
2023-05-18T05:11:57.504Z,94611.09
2023-05-18T05:14:24.222Z,94611.50
2023-05-18T05:16:51.010Z,94605.53
2023-05-18T05:19:17.788Z,94610.72
2023-05-18T05:21:44.602Z,94613.47
2023-05-18T05:24:11.273Z,94611.75
2023-05-18T05:26:38.022Z,94606.28
2023-05-18T05:29:04.781Z,94608.88
2023-05-18T05:31:31.686Z,94600.75
2023-05-18T05:33:58.435Z,94617.75
2023-05-18T05:36:25.211Z,94611.97
2023-05-18T05:38:51.972Z,94619.53
2023-05-18T05:41:18.803Z,94616.53
2023-05-18T05:43:45.733Z,94615.22
2023-05-18T05:46:12.514Z,94619.72
2023-05-18T05:48:39.274Z,94614.75
2023-05-18T05:51:06.084Z,94610.81
2023-05-18T05:53:33.024Z,94604.53
2023-05-18T05:55:59.774Z,94610.31
2023-05-18T05:58:26.659Z,94598.97
2023-05-18T06:00:53.414Z,94607.38
2023-05-18T06:03:20.418Z,94613.97
2023-05-18T06:05:47.344Z,94610.63
2023-05-18T06:08:14.110Z,94610.13
2023-05-18T06:10:41.466Z,94611.00
2023-05-18T06:13:08.293Z,94615.00
2023-05-18T06:15:35.088Z,94609.31
2023-05-18T06:18:02.040Z,94601.63
2023-05-18T06:20:28.974Z,94610.53
2023-05-18T06:22:56.676Z,94614.72
2023-05-18T06:25:24.462Z,94613.69
2023-05-18T06:27:52.098Z,94623.06
2023-05-18T06:30:19.137Z,94621.84
2023-05-18T06:32:46.003Z,94629.34
2023-05-18T06:35:13.144Z,94631.53
2023-05-18T06:37:40.005Z,94631.56
2023-05-18T06:40:08.407Z,94626.16
2023-05-18T06:42:35.160Z,94631.53
2023-05-18T06:45:02.364Z,94625.34
2023-05-18T06:47:29.149Z,94623.00
2023-05-18T06:49:55.936Z,94627.44
2023-05-18T06:52:25.537Z,94628.78
2023-05-18T06:54:53.254Z,94634.03
2023-05-18T06:57:20.045Z,94642.19
2023-05-18T06:59:50.657Z,94626.28
2023-05-18T07:02:17.461Z,94632.13
2023-05-18T07:04:44.218Z,94629.16
2023-05-18T07:07:11.037Z,94635.38
2023-05-18T07:09:37.868Z,94633.53
2023-05-18T07:12:05.004Z,94637.38
2023-05-18T07:14:31.796Z,94642.56
2023-05-18T07:16:58.585Z,94640.16
2023-05-18T07:19:25.377Z,94635.00
2023-05-18T07:21:52.145Z,94654.53
2023-05-18T07:24:19.456Z,94645.28
2023-05-18T07:26:46.595Z,94652.31
2023-05-18T07:29:13.393Z,94649.06
2023-05-18T07:31:41.402Z,94659.88
2023-05-18T07:34:08.404Z,94654.88
2023-05-18T07:36:35.188Z,94654.09
2023-05-18T07:39:01.970Z,94644.97
2023-05-18T07:41:28.817Z,94646.59
2023-05-18T07:43:55.701Z,94642.41
2023-05-18T07:46:22.602Z,94642.44
2023-05-18T07:48:49.448Z,94645.38
2023-05-18T07:51:16.477Z,94637.81
2023-05-18T07:53:43.350Z,94645.41
2023-05-18T07:56:10.098Z,94644.63
2023-05-18T07:58:37.408Z,94656.38
2023-05-18T08:01:04.334Z,94650.59
2023-05-18T08:03:31.388Z,94655.44
2023-05-18T08:05:58.200Z,94657.00
2023-05-18T08:08:25.010Z,94665.59
2023-05-18T08:10:53.086Z,94657.41
2023-05-18T08:13:19.893Z,94663.41
2023-05-18T08:15:53.224Z,94661.81
2023-05-18T08:18:26.469Z,94653.44
2023-05-18T08:20:54.125Z,94660.00
2023-05-18T08:23:21.142Z,94667.00
2023-05-18T08:25:48.042Z,94657.81
2023-05-18T08:28:14.760Z,94671.81
2023-05-18T08:30:41.681Z,94669.81
2023-05-18T08:33:09.364Z,94665.19
2023-05-18T08:35:36.268Z,94673.19
2023-05-18T08:38:05.516Z,94684.97
2023-05-18T08:40:43.949Z,94686.53
2023-05-18T08:43:19.125Z,94686.94
2023-05-18T08:45:53.213Z,94684.34
2023-05-18T08:48:23.394Z,94680.94
2023-05-18T08:50:54.145Z,94676.16
2023-05-18T08:53:21.822Z,94673.56
2023-05-18T08:55:50.100Z,94682.78
2023-05-18T08:58:19.944Z,94669.56
2023-05-18T09:00:46.770Z,94672.16
2023-05-18T09:03:14.515Z,94674.75
2023-05-18T09:05:42.134Z,94664.38
2023-05-18T09:08:09.848Z,94677.16
2023-05-18T09:10:36.905Z,94672.59
2023-05-18T09:13:05.542Z,94669.00
2023-05-18T09:15:33.394Z,94661.41
2023-05-18T09:18:00.275Z,94666.97
2023-05-18T09:20:28.120Z,94664.53
2023-05-18T09:22:54.925Z,94656.34
2023-05-18T09:25:21.824Z,94655.34
2023-05-18T09:27:49.252Z,94651.16
2023-05-18T09:30:16.140Z,94650.22
2023-05-18T09:32:43.580Z,94653.53
2023-05-18T09:35:10.451Z,94645.66
2023-05-18T09:37:37.442Z,94640.44
2023-05-18T09:40:10.811Z,94638.56
2023-05-18T09:42:42.492Z,94640.44
2023-05-18T09:45:29.367Z,94640.09
2023-05-18T09:47:57.276Z,94635.34
2023-05-18T09:50:24.839Z,94635.56
2023-05-18T09:52:51.755Z,94626.34
2023-05-18T09:55:19.674Z,94626.59
2023-05-18T09:57:48.334Z,94615.28
2023-05-18T10:00:16.952Z,94622.69
2023-05-18T10:02:49.092Z,94630.19
2023-05-18T10:05:23.255Z,94641.31
2023-05-18T10:07:54.930Z,94635.22
2023-05-18T10:10:24.211Z,94631.66
2023-05-18T10:12:51.990Z,94637.63
2023-05-18T10:15:21.271Z,94634.56
2023-05-18T10:17:51.124Z,94625.66
2023-05-18T10:20:20.498Z,94628.25
2023-05-18T10:22:48.292Z,94630.41
2023-05-18T10:25:26.811Z,94635.38
2023-05-18T10:27:57.057Z,94633.50
2023-05-18T10:30:24.338Z,94624.31
2023-05-18T10:32:52.000Z,94631.53
2023-05-18T10:35:19.286Z,94628.78
2023-05-18T10:37:50.412Z,94639.50
2023-05-18T10:40:18.542Z,94631.53
2023-05-18T10:42:46.229Z,94627.22
2023-05-18T10:45:13.236Z,94631.25
2023-05-18T10:47:40.486Z,94633.72
2023-05-18T10:50:09.056Z,94637.75
2023-05-18T10:52:37.914Z,94630.94
2023-05-18T10:55:05.280Z,94633.78
2023-05-18T10:57:44.817Z,94623.59
2023-05-18T11:00:12.448Z,94608.72
2023-05-18T11:02:42.890Z,94621.41
2023-05-18T11:05:10.979Z,94619.75
2023-05-18T11:07:38.436Z,94626.97
2023-05-18T11:10:10.686Z,94623.38
2023-05-18T11:12:41.603Z,94616.81
2023-05-18T11:15:09.032Z,94601.75
2023-05-18T11:17:36.148Z,94615.97
2023-05-18T11:20:09.430Z,94614.84
2023-05-18T11:22:47.913Z,94613.22
2023-05-18T11:25:33.086Z,94610.94
2023-05-18T11:28:02.573Z,94619.03
2023-05-18T11:30:37.965Z,94613.28
2023-05-18T11:33:24.985Z,94614.94
2023-05-18T11:35:55.449Z,94617.16
2023-05-18T11:38:23.179Z,94608.13
2023-05-18T11:40:51.191Z,94613.53
2023-05-18T11:43:25.263Z,94618.44
2023-05-18T11:45:59.022Z,94623.56
2023-05-18T11:48:28.139Z,94620.34
2023-05-18T11:50:55.557Z,94619.03
2023-05-18T11:53:26.877Z,94630.53
2023-05-18T11:55:57.252Z,94619.81
2023-05-18T11:58:27.079Z,94621.59
2023-05-18T12:00:56.000Z,94625.06
2023-05-18T12:03:26.694Z,94632.09
2023-05-18T12:05:54.252Z,94631.00
2023-05-18T12:08:21.963Z,94625.56
2023-05-18T12:10:51.914Z,94615.72
2023-05-18T12:13:18.901Z,94623.94
2023-05-18T12:15:45.884Z,94616.97
2023-05-18T12:18:12.850Z,94617.25
2023-05-18T12:20:40.631Z,94610.13
2023-05-18T12:23:07.497Z,94605.50
2023-05-18T12:25:34.500Z,94614.94
2023-05-18T12:28:02.263Z,94610.47
2023-05-18T12:30:35.642Z,94608.94
2023-05-18T12:33:03.915Z,94622.91
2023-05-18T12:35:31.510Z,94626.34
2023-05-18T12:38:02.183Z,94612.22
2023-05-18T12:40:46.585Z,94619.53
2023-05-18T12:43:13.644Z,94620.78
2023-05-18T12:45:41.208Z,94609.59
2023-05-18T12:48:09.473Z,94615.75
2023-05-18T12:50:38.909Z,94622.47
2023-05-18T12:53:05.752Z,94615.34
2023-05-18T12:55:33.437Z,94612.19
2023-05-18T12:58:04.088Z,94603.94
2023-05-18T13:00:34.917Z,94618.09
2023-05-18T13:03:11.630Z,94609.94
2023-05-18T13:05:45.867Z,94613.81
2023-05-18T13:08:18.894Z,94609.72
2023-05-18T13:10:46.368Z,94609.63
2023-05-18T13:13:16.795Z,94615.66
2023-05-18T13:15:44.043Z,94612.09
2023-05-18T13:18:11.896Z,94610.09
2023-05-18T13:20:50.906Z,94609.72
2023-05-18T13:23:20.053Z,94609.41
2023-05-18T13:25:47.148Z,94598.09
2023-05-18T13:28:15.177Z,94613.75
2023-05-18T13:30:42.947Z,94611.31
2023-05-18T13:33:10.859Z,94605.69
2023-05-18T13:35:40.416Z,94607.91
2023-05-18T13:38:07.305Z,94608.44
2023-05-18T13:40:34.307Z,94615.00
2023-05-18T13:43:01.129Z,94612.44
2023-05-18T13:45:27.966Z,94605.16
2023-05-18T13:47:54.792Z,94607.19
2023-05-18T13:50:23.052Z,94604.38
2023-05-18T13:52:50.260Z,94609.19
2023-05-18T13:55:17.039Z,94610.28
2023-05-18T13:57:44.991Z,94607.91
2023-05-18T14:00:13.651Z,94598.97
2023-05-18T14:02:41.649Z,94605.59
2023-05-18T14:05:09.311Z,94592.72
2023-05-18T14:07:40.072Z,94598.53
2023-05-18T14:10:08.310Z,94600.19
2023-05-18T14:12:35.820Z,94602.03
2023-05-18T14:15:03.417Z,94599.91
2023-05-18T14:17:30.550Z,94611.59
2023-05-18T14:19:57.616Z,94611.06
2023-05-18T14:22:26.318Z,94603.88
2023-05-18T14:24:53.704Z,94601.88
2023-05-18T14:27:20.675Z,94597.03
2023-05-18T14:29:48.280Z,94597.19
2023-05-18T14:32:15.128Z,94599.38
2023-05-18T14:34:41.918Z,94596.44
2023-05-18T14:37:08.857Z,94589.56
2023-05-18T14:39:36.150Z,94585.19
2023-05-18T14:42:02.954Z,94597.03
2023-05-18T14:44:29.770Z,94587.03
2023-05-18T14:46:57.067Z,94586.25
2023-05-18T14:49:23.815Z,94582.59
2023-05-18T14:51:50.784Z,94583.84
2023-05-18T14:54:19.094Z,94582.97
2023-05-18T14:56:46.279Z,94577.63
2023-05-18T14:59:13.035Z,94566.47
2023-05-18T15:01:39.866Z,94580.19
2023-05-18T15:04:06.708Z,94573.81
2023-05-18T15:06:33.827Z,94576.59
2023-05-18T15:09:00.821Z,94574.44
2023-05-18T15:11:27.570Z,94577.31
2023-05-18T15:13:54.330Z,94583.31
2023-05-18T15:16:21.147Z,94585.19
2023-05-18T15:18:47.961Z,94586.25
2023-05-18T15:21:14.840Z,94584.41
2023-05-18T15:23:41.667Z,94589.81
2023-05-18T15:26:09.251Z,94577.66
2023-05-18T15:28:36.352Z,94582.69
2023-05-18T15:31:03.133Z,94581.63
2023-05-18T15:33:29.892Z,94583.97
2023-05-18T15:35:56.689Z,94583.13
2023-05-18T15:38:23.460Z,94586.75
2023-05-18T15:40:50.572Z,94585.25
2023-05-18T15:43:17.589Z,94584.78
2023-05-18T15:45:44.521Z,94562.53
2023-05-18T15:48:11.595Z,94578.28
2023-05-18T15:50:38.410Z,94577.13
2023-05-18T15:53:06.119Z,94571.13
2023-05-18T15:55:32.922Z,94577.16
2023-05-18T15:57:59.768Z,94567.28
2023-05-18T16:00:26.527Z,94571.88
2023-05-18T16:02:53.424Z,94573.63
2023-05-18T16:05:20.284Z,94566.16
2023-05-18T16:07:47.164Z,94568.53
2023-05-18T16:10:14.527Z,94569.59
2023-05-18T16:12:41.531Z,94556.88
2023-05-18T16:15:08.682Z,94560.50
2023-05-18T16:17:35.683Z,94554.34
2023-05-18T16:20:03.955Z,94565.72
2023-05-18T16:22:31.072Z,94555.16
2023-05-18T16:24:59.064Z,94568.78
2023-05-18T16:27:26.016Z,94559.91
2023-05-18T16:29:53.080Z,94575.94
2023-05-18T16:32:19.928Z,94569.44
2023-05-18T16:34:46.722Z,94569.44
2023-05-18T16:37:13.457Z,94566.94
2023-05-18T16:39:40.204Z,94567.19
2023-05-18T16:42:07.809Z,94572.66
2023-05-18T16:44:36.285Z,94572.88
2023-05-18T16:47:03.132Z,94575.47
2023-05-18T16:49:30.583Z,94582.28
2023-05-18T16:51:57.420Z,94582.28
2023-05-18T16:54:24.177Z,94588.84
2023-05-18T16:56:51.052Z,94586.63
2023-05-18T16:59:17.898Z,94584.06
2023-05-18T17:01:44.879Z,94588.25
2023-05-18T17:04:11.958Z,94590.50
2023-05-18T17:06:39.067Z,94586.47
2023-05-18T17:09:06.511Z,94585.88
2023-05-18T17:11:33.687Z,94598.81
2023-05-18T17:14:01.684Z,94605.44
2023-05-18T17:16:28.736Z,94598.28
2023-05-18T17:18:56.475Z,94596.25
2023-05-18T17:21:24.093Z,94591.44
2023-05-18T17:23:51.005Z,94599.25
2023-05-18T17:26:17.797Z,94596.06
2023-05-18T17:28:44.563Z,94600.44
2023-05-18T17:31:11.553Z,94600.69
2023-05-18T17:33:38.293Z,94599.56
2023-05-18T17:36:05.291Z,94588.59
2023-05-18T17:38:32.169Z,94595.38
2023-05-18T17:40:58.854Z,94586.81
2023-05-18T17:43:25.784Z,94598.88
2023-05-18T17:45:52.530Z,94591.84
2023-05-18T17:48:19.465Z,94593.06
2023-05-18T17:50:47.880Z,94590.31
2023-05-18T17:53:14.790Z,94591.75
2023-05-18T17:55:41.862Z,94591.38
2023-05-18T17:58:08.787Z,94593.97
2023-05-18T18:00:35.645Z,94583.00
2023-05-18T18:03:02.556Z,94583.81
2023-05-18T18:05:29.976Z,94589.00
2023-05-18T18:08:01.784Z,94583.81
2023-05-18T18:10:29.526Z,94584.44
2023-05-18T18:12:56.354Z,94587.00
2023-05-18T18:15:27.454Z,94590.63
2023-05-18T18:20:21.645Z,94584.44
2023-05-18T18:22:48.481Z,94589.47
2023-05-18T18:25:15.361Z,94586.06
2023-05-18T18:27:42.083Z,94577.69
2023-05-18T18:30:09.492Z,94578.88
2023-05-18T18:32:36.369Z,94588.88
2023-05-18T18:35:03.181Z,94587.28
2023-05-18T18:37:29.948Z,94593.88
2023-05-18T18:39:56.750Z,94581.09
2023-05-18T18:42:23.676Z,94586.88
2023-05-18T18:44:52.987Z,94595.47
2023-05-18T18:47:19.856Z,94596.66
2023-05-18T18:49:46.650Z,94599.84
2023-05-18T18:52:14.093Z,94604.47
2023-05-18T18:54:41.222Z,94607.84
2023-05-18T18:57:08.228Z,94602.31
2023-05-18T18:59:35.640Z,94612.28
2023-05-18T19:02:02.466Z,94604.69
2023-05-18T19:04:29.493Z,94619.06
2023-05-18T19:06:56.730Z,94614.88
2023-05-18T19:09:23.515Z,94618.06
2023-05-18T19:11:50.503Z,94620.47
2023-05-18T19:14:17.315Z,94618.28
2023-05-18T19:16:44.158Z,94619.06
2023-05-18T19:19:11.133Z,94623.88
2023-05-18T19:21:38.427Z,94618.28
2023-05-18T19:24:07.430Z,94624.66
2023-05-18T19:26:34.769Z,94620.88
2023-05-18T19:29:01.654Z,94622.09
2023-05-18T19:31:31.756Z,94616.72
2023-05-18T19:34:01.629Z,94629.09
2023-05-18T19:36:28.487Z,94626.28
2023-05-18T19:38:55.958Z,94627.47
2023-05-18T19:41:24.795Z,94636.88
2023-05-18T19:43:51.787Z,94636.25
2023-05-18T19:46:19.312Z,94640.28
2023-05-18T19:48:46.848Z,94643.44
2023-05-18T19:51:13.574Z,94646.47
2023-05-18T19:53:40.516Z,94655.25
2023-05-18T19:56:07.251Z,94652.25
2023-05-18T19:58:34.028Z,94651.44
2023-05-18T20:01:00.832Z,94662.22
2023-05-18T20:03:27.883Z,94654.03
2023-05-18T20:05:56.230Z,94654.03
2023-05-18T20:08:23.173Z,94661.63
2023-05-18T20:10:50.023Z,94666.22
2023-05-18T20:13:16.904Z,94661.44
2023-05-18T20:15:43.797Z,94662.22
2023-05-18T20:18:10.963Z,94659.03
2023-05-18T20:20:37.827Z,94665.63
2023-05-18T20:23:06.920Z,94655.84
2023-05-18T20:25:35.410Z,94651.03
2023-05-18T20:28:03.517Z,94651.66
2023-05-18T20:30:30.801Z,94655.84
2023-05-18T20:33:00.483Z,94655.03
2023-05-18T20:35:27.240Z,94659.81
2023-05-18T20:37:59.807Z,94659.84
2023-05-18T20:40:27.712Z,94652.03
2023-05-18T20:42:55.021Z,94660.22
2023-05-18T20:45:22.783Z,94660.00
2023-05-18T20:47:50.899Z,94663.41
2023-05-18T20:50:18.462Z,94650.25
2023-05-18T20:52:46.289Z,94656.63
2023-05-18T20:55:14.063Z,94658.22
2023-05-18T20:57:41.601Z,94661.81
2023-05-18T21:00:09.274Z,94659.03
2023-05-18T21:02:36.976Z,94659.03
2023-05-18T21:05:04.808Z,94650.44
2023-05-18T21:07:34.700Z,94649.44
2023-05-18T21:10:02.944Z,94651.03
2023-05-18T21:12:29.920Z,94653.81
2023-05-18T21:14:56.652Z,94633.88
2023-05-18T21:17:23.410Z,94645.84
2023-05-18T21:19:50.719Z,94627.91
2023-05-18T21:22:17.424Z,94638.25
2023-05-18T21:24:44.207Z,94635.88
2023-05-18T21:27:10.972Z,94636.66
2023-05-18T21:29:37.777Z,94636.66
2023-05-18T21:32:04.677Z,94632.69
2023-05-18T21:34:31.558Z,94633.25
2023-05-18T21:36:58.259Z,94628.47
2023-05-18T21:39:24.968Z,94627.69
2023-05-18T21:41:51.731Z,94624.66
2023-05-18T21:44:18.508Z,94635.25
2023-05-18T21:46:45.829Z,94627.06
2023-05-18T21:49:12.751Z,94627.06
2023-05-18T21:51:39.499Z,94622.88
2023-05-18T21:54:06.276Z,94626.09
2023-05-18T21:56:34.864Z,94624.69
2023-05-18T21:59:01.691Z,94616.31
2023-05-18T22:01:28.475Z,94615.91
2023-05-18T22:03:55.257Z,94619.47
2023-05-18T22:06:22.682Z,94623.44
2023-05-18T22:08:50.200Z,94625.44
2023-05-18T22:11:16.985Z,94626.25
2023-05-18T22:13:44.767Z,94632.56
2023-05-18T22:16:11.550Z,94628.59
2023-05-18T22:18:38.281Z,94626.94
2023-05-18T22:21:05.061Z,94623.69
2023-05-18T22:23:31.771Z,94627.47
2023-05-18T22:25:58.493Z,94638.41
2023-05-18T22:28:25.186Z,94622.06
2023-05-18T22:30:52.588Z,94623.22
2023-05-18T22:33:21.264Z,94624.78
2023-05-18T22:35:48.235Z,94628.44
2023-05-18T22:38:15.780Z,94629.22
2023-05-18T22:40:42.923Z,94633.22
2023-05-18T22:43:09.620Z,94627.84
2023-05-18T22:45:36.442Z,94633.59
2023-05-18T22:48:03.390Z,94626.78
2023-05-18T22:50:30.684Z,94621.56
2023-05-18T22:52:57.669Z,94629.72
2023-05-18T22:55:24.421Z,94623.31
2023-05-18T22:57:51.120Z,94615.31
2023-05-18T23:00:18.072Z,94620.47
2023-05-18T23:02:44.914Z,94614.88
2023-05-18T23:05:11.960Z,94621.47
2023-05-18T23:07:39.115Z,94615.28
2023-05-18T23:10:06.906Z,94619.66
2023-05-18T23:12:33.822Z,94619.69
2023-05-18T23:15:04.231Z,94613.72
2023-05-18T23:17:32.003Z,94619.50
2023-05-18T23:20:02.870Z,94612.72
2023-05-18T23:22:29.596Z,94604.53
2023-05-18T23:24:56.410Z,94608.50
2023-05-18T23:27:23.126Z,94604.94
2023-05-18T23:29:49.967Z,94598.13
2023-05-18T23:32:16.811Z,94610.69
2023-05-18T23:34:44.526Z,94609.91
2023-05-18T23:37:11.430Z,94604.16
2023-05-18T23:39:41.631Z,94610.50
2023-05-18T23:42:09.026Z,94596.94
2023-05-18T23:44:36.057Z,94599.78
2023-05-18T23:47:03.097Z,94591.41
2023-05-18T23:49:30.146Z,94594.19
2023-05-18T23:52:01.393Z,94594.63
2023-05-18T23:54:28.705Z,94586.69
2023-05-18T23:56:56.205Z,94579.72
2023-05-18T23:59:23.176Z,94579.91
